Time;durP1;ratioP1;P1;durP2;ratioP2;P2;SDS_P1;SDS_P2;PMS_P1;PMS_P2;Temp;Humidity;BMP_temperature;BMP_pressure;BME280_temperature;BME280_humidity;BME280_pressure;Samples;Min_cycle;Max_cycle;Signal;HPM_P1;HPM_P2
2023/03/11 07:17:20;;;;;;;505.03;64.93;;;;;;;;;;5094866;27;20679;-54
2023/03/11 07:19:46;;;;;;;612.50;81.07;;;;;;;;;;5061587;28;20201;-53
2023/03/11 07:22:12;;;;;;;459.43;54.60;;;;;;;;;;5074969;28;20196;-52
2023/03/11 07:24:38;;;;;;;432.57;53.40;;;;;;;;;;5085763;28;20846;-52
2023/03/11 07:27:04;;;;;;;486.87;66.30;;;;;;;;;;5074287;28;20212;-53
2023/03/11 07:29:30;;;;;;;474.17;61.97;;;;;;;;;;5098528;28;20224;-51
2023/03/11 07:31:56;;;;;;;506.30;69.17;;;;;;;;;;5105747;27;20309;-51
2023/03/11 07:34:22;;;;;;;536.40;79.87;;;;;;;;;;5092634;28;20732;-51
2023/03/11 07:36:47;;;;;;;409.40;63.70;;;;;;;;;;5093187;28;20217;-51
2023/03/11 07:39:15;;;;;;;491.60;74.57;;;;;;;;;;5097799;27;20277;-51
2023/03/11 07:41:41;;;;;;;540.00;80.00;;;;;;;;;;5095019;27;20212;-51
2023/03/11 07:44:07;;;;;;;485.67;70.63;;;;;;;;;;5099079;27;20206;-51
2023/03/11 07:46:33;;;;;;;394.63;57.30;;;;;;;;;;5096340;28;20212;-51
2023/03/11 07:49:01;;;;;;;525.13;77.67;;;;;;;;;;5091000;28;20182;-51
2023/03/11 07:51:31;;;;;;;536.77;83.63;;;;;;;;;;5067581;28;20515;-51
2023/03/11 07:53:58;;;;;;;607.13;94.83;;;;;;;;;;5090106;28;20213;-50
2023/03/11 07:56:25;;;;;;;417.57;63.43;;;;;;;;;;5093591;28;20213;-50
2023/03/11 07:58:52;;;;;;;412.43;59.73;;;;;;;;;;5100457;27;20217;-49
2023/03/11 08:01:19;;;;;;;339.10;49.13;;;;;;;;;;5102640;28;20781;-50
2023/03/11 08:03:46;;;;;;;409.90;61.97;;;;;;;;;;5102525;28;20637;-50
2023/03/11 08:06:16;;;;;;;442.27;62.80;;;;;;;;;;5102246;27;20230;-49
2023/03/11 08:08:43;;;;;;;461.57;67.93;;;;;;;;;;5109927;27;20201;-49
2023/03/11 08:11:09;;;;;;;505.50;73.40;;;;;;;;;;5103431;27;20213;-50
2023/03/11 08:13:35;;;;;;;447.87;65.13;;;;;;;;;;5106732;27;20208;-49
2023/03/11 08:16:05;;;;;;;465.33;72.07;;;;;;;;;;5102741;28;20188;-50
2023/03/11 08:18:31;;;;;;;458.33;69.07;;;;;;;;;;5101284;27;20264;-49
2023/03/11 08:20:57;;;;;;;535.57;78.00;;;;;;;;;;5100774;27;20757;-49
2023/03/11 08:23:23;;;;;;;495.47;72.83;;;;;;;;;;5098646;28;20286;-49
2023/03/11 08:25:49;;;;;;;491.00;73.10;;;;;;;;;;5105989;27;20253;-49
2023/03/11 08:28:15;;;;;;;530.97;78.13;;;;;;;;;;5088260;27;20178;-49
2023/03/11 08:30:42;;;;;;;449.13;65.53;;;;;;;;;;5088984;28;20229;-49
2023/03/11 08:33:08;;;;;;;468.30;71.13;;;;;;;;;;5093535;28;20775;-49
2023/03/11 08:35:34;;;;;;;454.37;68.20;;;;;;;;;;5098654;28;20257;-50
2023/03/11 08:37:59;;;;;;;461.37;70.07;;;;;;;;;;5096359;28;20366;-49
2023/03/11 08:40:26;;;;;;;306.17;47.53;;;;;;;;;;5099138;28;20228;-53
2023/03/11 08:42:55;;;;;;;576.23;95.63;;;;;;;;;;5067626;28;20640;-53
2023/03/11 08:45:21;;;;;;;558.30;91.97;;;;;;;;;;5062223;28;20226;-53
2023/03/11 08:47:47;;;;;;;516.37;82.57;;;;;;;;;;5053615;28;20938;-53
2023/03/11 08:50:14;;;;;;;594.50;95.40;;;;;;;;;;5060976;28;20246;-53
2023/03/11 08:52:40;;;;;;;528.57;82.27;;;;;;;;;;5058986;28;20206;-54
2023/03/11 08:55:07;;;;;;;263.00;38.10;;;;;;;;;;5062061;28;20292;-53
2023/03/11 08:57:33;;;;;;;89.47;13.87;;;;;;;;;;5078660;28;20213;-53
2023/03/11 08:59:59;;;;;;;72.57;11.63;;;;;;;;;;5096244;28;20300;-56
2023/03/11 09:02:25;;;;;;;77.03;12.27;;;;;;;;;;5091640;28;20293;-53
2023/03/11 09:04:51;;;;;;;182.17;26.90;;;;;;;;;;5088776;28;20217;-53
2023/03/11 09:07:18;;;;;;;113.57;16.80;;;;;;;;;;5094503;28;20214;-53
2023/03/11 09:09:44;;;;;;;78.13;12.37;;;;;;;;;;5092912;28;20229;-53
2023/03/11 09:12:12;;;;;;;101.47;15.63;;;;;;;;;;5097342;28;20568;-53
2023/03/11 09:14:39;;;;;;;43.23;7.30;;;;;;;;;;5090298;28;20213;-53
2023/03/11 09:17:05;;;;;;;83.60;13.20;;;;;;;;;;5094505;28;20209;-53
2023/03/11 09:19:31;;;;;;;91.37;14.53;;;;;;;;;;5087802;28;20541;-53
2023/03/11 09:21:59;;;;;;;139.10;20.97;;;;;;;;;;5087403;28;20194;-53
2023/03/11 09:24:25;;;;;;;95.40;14.50;;;;;;;;;;5092317;28;20684;-53
2023/03/11 09:26:51;;;;;;;77.27;12.13;;;;;;;;;;5090061;28;20255;-53
2023/03/11 09:29:17;;;;;;;97.57;14.03;;;;;;;;;;5098366;28;20703;-53
2023/03/11 09:31:42;;;;;;;84.53;12.60;;;;;;;;;;5092049;28;20287;-53
2023/03/11 09:34:10;;;;;;;116.80;17.00;;;;;;;;;;5098226;28;20212;-53
2023/03/11 09:36:36;;;;;;;87.67;12.83;;;;;;;;;;5094762;28;20613;-53
2023/03/11 09:39:02;;;;;;;103.90;14.80;;;;;;;;;;5093541;27;20257;-53
2023/03/11 09:41:34;;;;;;;101.20;15.67;;;;;;;;;;5091272;28;20206;-54
2023/03/11 09:44:17;;;;;;;83.50;13.30;;;2.30;1.00;;;;;;5081749;28;20213;-53
2023/03/11 09:47:12;;;;;;;86.13;13.73;;;;;;;;;;5095589;28;20208;-53
2023/03/11 09:49:50;;;;;;;65.63;10.90;;;;;;;;;;5069554;28;20239;-53
2023/03/11 09:52:18;;;;;;;117.67;17.70;;;;;;;;;;5093071;28;20208;-53
2023/03/11 09:54:52;;;;;;;57.57;9.57;;;;;;;;;;5091182;28;20293;-53
2023/03/11 09:57:38;;;;;;;121.67;18.03;;;;;;;;;;5093714;28;20537;-53
2023/03/11 10:00:05;;;;;;;62.73;10.13;;;;;;;;;;5093201;27;20675;-53
2023/03/11 10:02:32;;;;;;;406.77;66.73;;;;;;;;;;5087677;28;20217;-54
2023/03/11 10:05:06;;;;;;;494.27;74.03;;;;;;;;;;5078243;28;20279;-53
2023/03/11 10:07:37;;;;;;;537.97;83.77;;;;;;;;;;5095695;27;20289;-53
2023/03/11 10:10:04;;;;;;;478.17;73.43;;;;;;;;;;5072559;28;21314;-54
2023/03/11 10:12:32;;;;;;;577.23;90.17;;;;;;;;;;5064644;28;20720;-53
2023/03/11 10:14:58;;;;;;;516.23;82.93;;;;;;;;;;5066024;28;20647;-53
2023/03/11 10:17:40;;;;;;;500.50;77.20;;;;;;;;;;5072358;28;20288;-53
2023/03/11 10:20:11;;;;;;;532.97;88.33;;;;;;;;;;5054764;28;20224;-54
2023/03/11 10:22:45;;;;;;;493.10;80.47;;;;;;;;;;5066310;28;20201;-54
2023/03/11 10:25:15;;;;;;;592.67;97.23;;;;;;;;;;5071405;28;20186;-54
2023/03/11 10:28:01;;;;;;;507.83;81.00;;;;;;;;;;5079784;27;21526;-53
2023/03/11 10:30:27;;;;;;;684.10;120.67;;;;;;;;;;5064114;28;20237;-54
2023/03/11 10:33:11;;;;;;;487.37;79.10;;;;;;;;;;5053334;28;20795;-53
2023/03/11 10:35:43;;;;;;;483.93;73.50;;;;;;;;;;5064738;28;20301;-53
2023/03/11 10:38:12;;;;;;;444.23;67.57;;;;;;;;;;5070838;28;20575;-54
2023/03/11 10:40:40;;;;;;;36.27;6.70;;;;;;;;;;5087264;28;20525;-54
2023/03/11 10:43:10;;;;;;;92.27;14.53;;;;;;;;;;5092514;27;20518;-54
2023/03/11 10:45:40;;;;;;;77.23;12.90;;;3.10;1.00;;;;;;5094080;28;20221;-54
2023/03/11 10:48:13;;;;;;;105.23;16.13;;;;;;;;;;5091361;28;20787;-54
2023/03/11 10:51:02;;;;;;;159.27;24.70;;;;;;;;;;5076709;28;20723;-54
2023/03/11 10:53:29;;;;;;;134.43;20.60;;;;;;;;;;5090995;28;20214;-54
2023/03/11 10:55:56;;;;;;;124.63;18.10;;;;;;;;;;5085432;28;20210;-54
2023/03/11 10:58:26;;;;;;;102.50;16.67;;;;;;;;;;5094081;28;20178;-55
2023/03/11 11:01:02;;;;;;;74.17;12.20;;;;;;;;;;5091337;28;20217;-55
2023/03/11 11:03:29;;;;;;;175.67;26.67;;;;;;;;;;5088453;28;20209;-55
2023/03/11 11:06:02;;;;;;;79.00;12.70;;;;;;;;;;5082881;28;20580;-53
2023/03/11 11:08:28;;;;;;;82.33;13.40;;;;;;;;;;5094205;28;20650;-53
2023/03/11 11:10:56;;;;;;;138.90;21.47;;;3.60;99.90;;;;;;5091112;28;20267;-53
2023/03/11 11:13:33;;;;;;;74.50;12.37;;;;;;;;;;5087672;28;20194;-54
2023/03/11 11:15:59;;;;;;;78.43;12.93;;;;;;;;;;5089228;28;20225;-56
2023/03/11 11:18:47;;;;;;;80.07;12.93;;;3.50;99.90;;;;;;5091291;28;20564;-54
2023/03/11 11:21:36;;;;;;;140.70;21.43;;;3.30;1.00;;;;;;5091083;28;20692;-54
2023/03/11 11:24:20;;;;;;;69.63;11.33;;;3.30;1.00;;;;;;5089478;28;20221;-54
2023/03/11 11:27:05;;;;;;;80.00;12.27;;;;;;;;;;5083103;28;20216;-54
2023/03/11 11:29:31;;;;;;;89.60;13.50;;;;;;;;;;5093359;28;20322;-54
2023/03/11 11:32:18;;;;;;;62.13;10.30;;;;;;;;;;5097758;28;20244;-54
2023/03/11 11:34:56;;;;;;;81.63;13.40;;;;;;;;;;5088974;28;20273;-54
2023/03/11 11:37:25;;;;;;;133.20;21.27;;;;;;;;;;5086024;28;20177;-54
2023/03/11 11:39:57;;;;;;;525.37;79.93;;;;;;;;;;5064967;28;20232;-54
2023/03/11 11:42:24;;;;;;;642.20;101.60;;;;;;;;;;5070230;28;20247;-54
2023/03/11 11:44:52;;;;;;;553.00;84.47;;;;;;;;;;5062867;28;20615;-54
2023/03/11 11:47:21;;;;;;;549.47;85.73;;;;;;;;;;5069785;28;20652;-53
2023/03/11 11:49:54;;;;;;;636.07;108.07;;;;;;;;;;5056144;28;20322;-54
2023/03/11 11:52:36;;;;;;;663.77;114.87;;;;;;;;;;5056866;28;20209;-54
2023/03/11 11:55:11;;;;;;;539.03;91.60;;;;;;;;;;5064568;28;20821;-53
2023/03/11 11:57:37;;;;;;;585.30;95.00;;;;;;;;;;5062886;28;20205;-54
2023/03/11 12:00:09;;;;;;;476.57;81.37;;;;;;;;;;5057916;28;20209;-54
2023/03/11 12:02:46;;;;;;;550.80;95.47;;;;;;;;;;5073436;28;20263;-53
2023/03/11 12:05:12;;;;;;;559.37;91.90;;;;;;;;;;5064084;28;20259;-54
2023/03/11 12:07:58;;;;;;;575.17;94.97;;;;;;;;;;5062561;28;20190;-54
2023/03/11 12:10:31;;;;;;;730.73;125.53;;;;;;;;;;5059416;28;20178;-54
2023/03/11 12:13:14;;;;;;;499.43;72.97;;;;;;;;;;5063042;28;20338;-54
2023/03/11 12:15:43;;;;;;;471.20;71.60;;;;;;;;;;5066266;28;20874;-54
2023/03/11 12:18:34;;;;;;;626.87;96.67;;;;;;;;;;5059739;28;20221;-54
2023/03/11 12:21:02;;;;;;;571.30;81.67;;;;;;;;;;5056473;28;20677;-54
2023/03/11 12:23:34;;;;;;;555.80;86.10;;;;;;;;;;5065429;28;20304;-54
2023/03/11 12:26:04;;;;;;;745.17;121.87;;;;;;;;;;5048888;28;20229;-54
2023/03/11 12:28:50;;;;;;;564.13;85.03;;;;;;;;;;5078538;28;20230;-54
2023/03/11 12:31:16;;;;;;;727.37;119.80;;;;;;;;;;5057512;28;20397;-54
2023/03/11 12:33:50;;;;;;;525.53;77.13;;;;;;;;;;5071043;28;20225;-54
2023/03/11 12:36:24;;;;;;;617.27;93.47;;;;;;;;;;5089604;28;20210;-54
2023/03/11 12:38:50;;;;;;;548.97;82.13;;;;;;;;;;5078723;28;20400;-54
2023/03/11 12:41:37;;;;;;;602.87;86.37;;;;;;;;;;5078748;27;20898;-54
2023/03/11 12:44:23;;;;;;;512.80;74.27;;;;;;;;;;5083859;28;20222;-53
2023/03/11 12:47:00;;;;;;;567.20;79.63;;;;;;;;;;5078152;28;20793;-54
2023/03/11 12:49:36;;;;;;;547.40;81.83;;;;;;;;;;5082445;28;20761;-54
2023/03/11 12:52:08;;;;;;;532.73;77.27;;;;;;;;;;5079707;28;20720;-54
2023/03/11 12:54:41;;;;;;;518.73;76.77;;;;;;;;;;5086356;28;20500;-54
2023/03/11 12:57:16;;;;;;;499.07;79.27;;;;;;;;;;5079744;28;20236;-54
2023/03/11 12:59:52;;;;;;;488.50;71.33;;;;;;;;;;5068539;28;20263;-54
2023/03/11 13:02:18;;;;;;;572.70;89.80;;;;;;;;;;5080254;28;20246;-54
2023/03/11 13:04:58;;;;;;;588.43;84.77;;;;;;;;;;5084923;27;20177;-54
2023/03/11 13:07:42;;;;;;;565.07;81.63;;;;;;;;;;5084644;28;20679;-54
2023/03/11 13:10:20;;;;;;;472.70;70.17;;;;;;;;;;5087739;28;20346;-54
2023/03/11 13:12:48;;;;;;;535.00;77.93;;;;;;;;;;5086805;28;20528;-54
2023/03/11 13:15:20;;;;;;;503.63;74.23;;;;;;;;;;5086207;28;20227;-54
2023/03/11 13:17:58;;;;;;;537.47;77.83;;;;;;;;;;5082545;28;20578;-56
2023/03/11 13:20:42;;;;;;;536.47;79.27;;;;;;;;;;5084677;28;20240;-54
2023/03/11 13:23:28;;;;;;;506.93;70.50;;;;;;;;;;5079515;28;20478;-54
2023/03/11 13:25:54;;;;;;;539.23;75.40;;;;;;;;;;5086291;28;20512;-54
2023/03/11 13:28:43;;;;;;;513.60;68.67;;;;;;;;;;5085661;28;20189;-54
2023/03/11 13:31:27;;;;;;;459.17;57.07;;;;;;;;;;5099813;28;20222;-49
2023/03/11 13:33:56;;;;;;;451.80;56.40;;;;;;;;;;5100715;28;20220;-50
2023/03/11 13:36:34;;;;;;;457.57;58.80;;;;;;;;;;5102721;28;20303;-50
2023/03/11 13:39:12;;;;;;;488.47;63.20;;;;;;;;;;5102288;28;20304;-50
2023/03/11 13:41:41;;;;;;;473.33;61.10;;;;;;;;;;5096258;28;20299;-50
2023/03/11 13:44:12;;;;;;;461.77;60.73;;;;;;;;;;5081555;28;20348;-50
2023/03/11 13:46:40;;;;;;;414.50;52.00;;;;;;;;;;5081644;28;20581;-50
2023/03/11 13:49:11;;;;;;;458.63;60.83;;;;;;;;;;5080512;28;20174;-50
2023/03/11 13:51:40;;;;;;;533.23;69.00;;;;;;;;;;5081717;28;20210;-50
2023/03/11 13:54:18;;;;;;;466.30;58.30;;;;;;;;;;5081534;28;20214;-50
2023/03/11 13:56:48;;;;;;;427.93;53.73;;;;;;;;;;5081148;28;20213;-49
2023/03/11 13:59:16;;;;;;;426.40;56.43;;;;;;;;;;5082059;28;20267;-50
2023/03/11 14:01:49;;;;;;;471.70;61.83;;;;;;;;;;5082040;28;20174;-50
2023/03/11 14:04:20;;;;;;;489.50;63.50;;;;;;;;;;5082588;28;20593;-49
2023/03/11 14:06:46;;;;;;;456.83;59.60;;;;;;;;;;5081169;28;20543;-50
2023/03/11 14:09:17;;;;;;;442.57;57.67;;;;;;;;;;5082442;28;20213;-50
2023/03/11 14:11:46;;;;;;;425.40;58.90;;;;;;;;;;5080449;28;20224;-51
2023/03/11 14:14:31;;;;;;;422.53;57.67;;;;;;;;;;5080314;28;20275;-50
2023/03/11 14:17:00;;;;;;;472.90;66.20;;;;;;;;;;5081839;28;20595;-50
2023/03/11 14:19:27;;;;;;;434.63;56.93;;;;;;;;;;5082184;28;20469;-49
2023/03/11 14:21:54;;;;;;;485.33;64.47;;;;;;;;;;5082031;28;20221;-50
2023/03/11 14:24:22;;;;;;;433.97;57.93;;;;;;;;;;5081796;28;20392;-50
2023/03/11 14:26:49;;;;;;;425.03;54.33;;;;;;;;;;5081320;28;20245;-50
2023/03/11 14:29:17;;;;;;;471.93;64.97;;;;;;;;;;5097975;28;20332;-50
2023/03/11 14:31:44;;;;;;;473.17;65.73;;;;;;;;;;5101814;28;20253;-49
2023/03/11 14:34:10;;;;;;;490.57;70.30;;;;;;;;;;5103171;28;20174;-50
2023/03/11 14:36:41;;;;;;;440.77;65.13;;;;;;;;;;5102525;28;20282;-50
2023/03/11 14:39:21;;;;;;;385.17;58.17;;;;;;;;;;5100919;28;20259;-49
2023/03/11 14:41:48;;;;;;;486.20;78.87;;;;;;;;;;5102094;28;20273;-49
2023/03/11 14:44:14;;;;;;;470.70;71.73;;;;;;;;;;5102213;28;20580;-50
2023/03/11 14:46:40;;;;;;;410.87;64.77;;;;;;;;;;5102840;28;20194;-50
2023/03/11 14:49:07;;;;;;;472.57;69.93;;;;;;;;;;5087786;28;20193;-50
2023/03/11 14:51:34;;;;;;;406.40;57.80;;;;;;;;;;5082535;28;20218;-50
2023/03/11 14:54:03;;;;;;;433.73;61.37;;;;;;;;;;5081950;28;20240;-50
2023/03/11 14:56:31;;;;;;;402.93;55.27;;;;;;;;;;5081602;28;20645;-49
2023/03/11 14:59:21;;;;;;;411.27;58.77;;;;;;;;;;5082012;28;20721;-50
2023/03/11 15:01:47;;;;;;;369.57;54.37;;;;;;;;;;5081476;28;20620;-49
2023/03/11 15:04:16;;;;;;;434.50;60.23;;;;;;;;;;5082507;28;20670;-50
2023/03/11 15:06:43;;;;;;;402.60;56.90;;;;;;;;;;5081975;28;20222;-50
2023/03/11 15:09:14;;;;;;;407.77;60.83;;;;;;;;;;5081895;28;20209;-51
2023/03/11 15:11:59;;;;;;;464.20;63.83;;;;;;;;;;5081623;28;20365;-50
2023/03/11 15:14:25;;;;;;;405.60;59.97;;;;;;;;;;5081832;28;20817;-50
2023/03/11 15:16:52;;;;;;;404.30;56.57;;;;;;;;;;5081385;28;20214;-51
2023/03/11 15:19:22;;;;;;;413.73;57.00;;;;;;;;;;5081622;28;20227;-50
2023/03/11 15:21:49;;;;;;;427.23;58.30;;;;;;;;;;5082049;28;20342;-50
2023/03/11 15:24:18;;;;;;;340.33;48.47;;;;;;;;;;5102032;28;20592;-50
2023/03/11 15:26:53;;;;;;;371.20;52.63;;;;;;;;;;5101420;28;20634;-51
2023/03/11 15:29:20;;;;;;;412.87;55.50;;;;;;;;;;5101718;28;20217;-50
2023/03/11 15:31:46;;;;;;;491.83;65.67;;;;;;;;;;5100245;28;20166;-50
2023/03/11 15:34:17;;;;;;;424.80;60.43;;;;;;;;;;5101781;28;20177;-49
2023/03/11 15:36:54;;;;;;;426.43;55.27;;;;;;;;;;5089304;28;20225;-50
2023/03/11 15:39:20;;;;;;;407.47;57.87;;;;;;;;;;5096075;28;20793;-50
2023/03/11 15:41:56;;;;;;;447.60;61.97;;;;;;;;;;5100660;28;20214;-51
2023/03/11 15:44:41;;;;;;;359.17;52.23;;;;;;;;;;5102679;28;20228;-50
2023/03/11 15:47:14;;;;;;;443.43;65.53;;;;;;;;;;5105614;27;20600;-49
2023/03/11 15:49:40;;;;;;;385.27;57.33;;;;;;;;;;5105226;28;20230;-49
2023/03/11 15:52:06;;;;;;;389.50;58.60;;;;;;;;;;5085609;28;20298;-49
2023/03/11 15:54:32;;;;;;;454.23;66.53;;;4.80;99.90;;;;;;5085031;28;20229;-50
2023/03/11 15:57:02;;;;;;;428.90;63.93;;;;;;;;;;5085602;28;20210;-49
2023/03/11 15:59:29;;;;;;;398.10;58.03;;;;;;;;;;5085479;28;20300;-50
2023/03/11 16:01:55;;;;;;;450.97;65.87;;;3.80;1.00;;;;;;5084972;28;20222;-49
2023/03/11 16:04:20;;;;;;;399.33;57.70;;;4.10;1.00;;;;;;5085838;28;20609;-49
2023/03/11 16:06:47;;;;;;;396.10;61.50;;;;;;;;;;5098512;28;20367;-49
2023/03/11 16:09:14;;;;;;;393.40;58.30;;;3.90;1.00;;;;;;5085393;28;20294;-49
2023/03/11 16:11:40;;;;;;;405.93;58.70;;;;;;;;;;5096305;28;20301;-49
2023/03/11 16:14:09;;;;;;;428.73;62.57;;;;;;;;;;5084949;28;20710;-49
2023/03/11 16:16:35;;;;;;;424.57;63.63;;;;;;;;;;5084781;28;20198;-49
2023/03/11 16:19:01;;;;;;;487.97;70.73;;;;;;;;;;5084537;28;20185;-49
2023/03/11 16:21:32;;;;;;;378.33;53.43;;;;;;;;;;5084129;28;20224;-50
2023/03/11 16:23:59;;;;;;;429.07;65.40;;;;;;;;;;5082688;28;20283;-49
2023/03/11 16:26:25;;;;;;;420.07;64.17;;;;;;;;;;5083751;28;20759;-49
2023/03/11 16:28:50;;;;;;;388.83;61.10;;;3.30;99.90;;;;;;5083942;28;20214;-49
2023/03/11 16:31:16;;;;;;;472.77;73.17;;;;;;;;;;5084305;28;20182;-49
2023/03/11 16:33:42;;;;;;;398.00;58.73;;;;;;;;;;5083577;28;20226;-50
2023/03/11 16:36:10;;;;;;;484.87;74.87;;;;;;;;;;5083726;28;20210;-49
2023/03/11 16:38:53;;;;;;;465.47;70.27;;;;;;;;;;5083786;28;20285;-50
2023/03/11 16:41:19;;;;;;;467.83;69.00;;;;;;;;;;5082020;28;20240;-50
2023/03/11 16:43:45;;;;;;;424.87;64.43;;;;;;;;;;5084110;28;20641;-50
2023/03/11 16:46:11;;;;;;;464.30;68.67;;;;;;;;;;5084036;28;20202;-50
2023/03/11 16:48:37;;;;;;;466.20;68.00;;;;;;;;;;5082920;28;20297;-49
2023/03/11 16:51:03;;;;;;;489.90;71.30;;;;;;;;;;5082961;28;20309;-49
2023/03/11 16:53:29;;;;;;;496.60;76.13;;;;;;;;;;5082700;28;20262;-50
2023/03/11 16:55:55;;;;;;;455.20;70.30;;;;;;;;;;5082801;28;20292;-49
2023/03/11 16:58:21;;;;;;;460.57;71.27;;;;;;;;;;5083485;28;20245;-50
2023/03/11 17:00:47;;;;;;;504.70;79.03;;;;;;;;;;5082903;28;20222;-50
2023/03/11 17:03:14;;;;;;;508.97;76.67;;;;;;;;;;5081471;28;20320;-50
2023/03/11 17:05:40;;;;;;;489.23;75.87;;;;;;;;;;5083564;28;20583;-50
2023/03/11 17:08:06;;;;;;;472.17;71.90;;;;;;;;;;5083897;28;20216;-50
2023/03/11 17:10:37;;;;;;;444.73;67.23;;;;;;;;;;5083493;28;20170;-50
2023/03/11 17:13:03;;;;;;;456.97;76.43;;;;;;;;;;5083544;28;20226;-50
2023/03/11 17:15:29;;;;;;;443.10;73.27;;;;;;;;;;5083048;28;20233;-51
2023/03/11 17:17:55;;;;;;;486.30;80.93;;;;;;;;;;5081310;28;20596;-51
2023/03/11 17:20:21;;;;;;;506.50;81.60;;;;;;;;;;5082677;28;20225;-50
2023/03/11 17:22:47;;;;;;;484.67;76.57;;;;;;;;;;5081631;28;20194;-51
2023/03/11 17:25:13;;;;;;;498.17;77.40;;;;;;;;;;5083910;28;20371;-50
2023/03/11 17:27:39;;;;;;;501.17;81.50;;;;;;;;;;5082982;28;20822;-50
2023/03/11 17:30:06;;;;;;;444.20;65.27;;;;;;;;;;5082864;28;20213;-50
2023/03/11 17:32:31;;;;;;;454.67;69.67;;;;;;;;;;5081086;28;20241;-50
2023/03/11 17:34:57;;;;;;;518.83;82.00;;;;;;;;;;5081648;28;20895;-50
2023/03/11 17:37:23;;;;;;;505.53;75.93;;;2.40;99.90;;;;;;5083700;28;20260;-50
2023/03/11 17:39:49;;;;;;;458.07;73.37;;;;;;;;;;5083147;28;20214;-51
2023/03/11 17:42:15;;;;;;;425.63;63.93;;;;;;;;;;5082104;28;20487;-50
2023/03/11 17:44:41;;;;;;;532.13;82.00;;;;;;;;;;5083040;28;20223;-50
2023/03/11 17:47:07;;;;;;;552.13;89.60;;;;;;;;;;5082380;28;20692;-50
2023/03/11 17:49:33;;;;;;;484.43;73.23;;;;;;;;;;5082439;28;20186;-50
2023/03/11 17:51:59;;;;;;;520.17;76.90;;;;;;;;;;5083078;28;20190;-50
2023/03/11 17:54:25;;;;;;;526.70;84.50;;;;;;;;;;5082743;28;20218;-51
2023/03/11 17:56:51;;;;;;;492.40;79.03;;;;;;;;;;5082370;28;20238;-50
2023/03/11 17:59:17;;;;;;;517.47;80.43;;;;;;;;;;5082018;28;20221;-50
2023/03/11 18:01:43;;;;;;;520.67;99.27;;;;;;;;;;5081770;28;20187;-50
2023/03/11 18:04:09;;;;;;;525.30;92.70;;;;;;;;;;5083126;28;20178;-50
2023/03/11 18:06:35;;;;;;;499.77;93.50;;;;;;;;;;5082576;28;20271;-49
2023/03/11 18:09:01;;;;;;;553.00;105.63;;;;;;;;;;5082180;28;20210;-50
2023/03/11 18:11:27;;;;;;;506.73;98.30;;;;;;;;;;5082190;28;20299;-49
2023/03/11 18:13:53;;;;;;;480.23;100.40;;;;;;;;;;5082668;28;20305;-50
2023/03/11 18:16:21;;;;;;;533.83;117.47;;;;;;;;;;5082969;28;20247;-49
2023/03/11 18:18:47;;;;;;;561.37;120.67;;;;;;;;;;5081646;28;20593;-50
2023/03/11 18:21:15;;;;;;;470.00;107.77;;;;;;;;;;5081990;28;20304;-49
2023/03/11 18:23:41;;;;;;;544.83;117.07;;;;;;;;;;5081738;28;20229;-50
2023/03/11 18:26:07;;;;;;;568.80;123.90;;;;;;;;;;5082265;28;20616;-49
2023/03/11 18:28:34;;;;;;;489.70;103.27;;;;;;;;;;5082515;28;20186;-50
2023/03/11 18:31:06;;;;;;;521.77;111.73;;;;;;;;;;5083694;28;20177;-49
2023/03/11 18:33:32;;;;;;;531.57;101.97;;;;;;;;;;5082333;28;20245;-49
2023/03/11 18:35:58;;;;;;;51.87;13.40;;;;;;;;;;5087271;28;20210;-49
2023/03/11 18:38:24;;;;;;;95.17;24.00;;;;;;;;;;5088860;28;20268;-49
2023/03/11 18:40:57;;;;;;;65.03;17.00;;;;;;;;;;5089455;28;20618;-49
2023/03/11 18:43:22;;;;;;;46.90;10.90;;;;;;;;;;5089133;28;20708;-49
2023/03/11 18:45:48;;;;;;;38.93;10.70;;;;;;;;;;5088180;28;20218;-50
2023/03/11 18:48:14;;;;;;;56.63;15.40;;;;;;;;;;5089557;28;20627;-50
2023/03/11 18:50:40;;;;;;;49.00;13.37;;;;;;;;;;5089894;28;20210;-49
2023/03/11 18:53:06;;;;;;;48.20;12.67;;;;;;;;;;5090133;28;20206;-49
2023/03/11 18:55:34;;;;;;;56.97;14.70;;;1.00;1.00;;;;;;5089889;28;20167;-49
2023/03/11 18:58:00;;;;;;;53.70;14.13;;;;;;;;;;5090073;28;20175;-50
2023/03/11 19:00:26;;;;;;;52.37;14.40;;;;;;;;;;5089615;28;20346;-50
2023/03/11 19:02:52;;;;;;;49.83;13.07;;;1.00;1.00;;;;;;5089262;28;20217;-50
2023/03/11 19:05:18;;;;;;;61.93;15.80;;;;;;;;;;5089797;28;20263;-50
2023/03/11 19:07:44;;;;;;;43.87;10.70;;;;;;;;;;5089931;28;20209;-50
2023/03/11 19:10:11;;;;;;;41.60;10.40;;;0.80;1.00;;;;;;5090395;28;20170;-50
2023/03/11 19:12:38;;;;;;;45.27;11.07;;;;;;;;;;5089658;28;20218;-50
2023/03/11 19:15:04;;;;;;;58.37;13.57;;;;;;;;;;5089317;28;20613;-50
2023/03/11 19:17:30;;;;;;;62.43;13.93;;;;;;;;;;5088324;28;20525;-50
2023/03/11 19:19:56;;;;;;;46.47;10.10;;;;;;;;;;5089756;28;20550;-50
2023/03/11 19:22:22;;;;;;;50.30;10.87;;;;;;;;;;5090519;28;20265;-50
2023/03/11 19:24:48;;;;;;;45.60;10.03;;;;;;;;;;5089863;28;20214;-51
2023/03/11 19:27:14;;;;;;;48.40;10.53;;;;;;;;;;5089237;28;20255;-50
2023/03/11 19:29:40;;;;;;;99.80;21.00;;;;;;;;;;5088719;28;20226;-55
2023/03/11 19:32:06;;;;;;;114.93;24.63;;;;;;;;;;5088338;28;20209;-55
2023/03/11 19:34:32;;;;;;;84.33;17.60;;;;;;;;;;5088945;28;20284;-55
2023/03/11 19:36:58;;;;;;;77.30;16.23;;;;;;;;;;5099525;28;20537;-55
2023/03/11 19:39:24;;;;;;;108.13;21.57;;;;;;;;;;5102219;28;20206;-55
2023/03/11 19:41:50;;;;;;;68.13;13.63;;;;;;;;;;5100774;28;20202;-55
2023/03/11 19:44:16;;;;;;;91.83;17.70;;;;;;;;;;5098676;28;20209;-55
2023/03/11 19:46:41;;;;;;;80.47;15.90;;;;;;;;;;5101630;28;20193;-55
2023/03/11 19:49:07;;;;;;;104.70;20.13;;;;;;;;;;5095668;28;20180;-55
2023/03/11 19:51:33;;;;;;;108.27;21.37;;;;;;;;;;5093763;28;20309;-55
2023/03/11 19:53:59;;;;;;;72.97;14.93;;;;;;;;;;5099960;28;20707;-55
2023/03/11 19:56:26;;;;;;;81.53;16.63;;;;;;;;;;5089781;28;20202;-55
2023/03/11 19:58:52;;;;;;;86.07;17.60;;;;;;;;;;5100734;28;20616;-55
2023/03/11 20:01:19;;;;;;;120.33;22.77;;;;;;;;;;5091329;28;20219;-55
2023/03/11 20:03:45;;;;;;;95.17;18.30;;;;;;;;;;5090004;28;20212;-55
2023/03/11 20:06:17;;;;;;;109.93;20.83;;;;;;;;;;5092917;28;20222;-55
2023/03/11 20:08:43;;;;;;;180.80;33.83;;;;;;;;;;5089933;28;20588;-55
2023/03/11 20:11:09;;;;;;;110.87;20.40;;;;;;;;;;5084694;28;20628;-55
2023/03/11 20:13:36;;;;;;;104.30;20.03;;;;;;;;;;5095910;28;20198;-55
2023/03/11 20:16:07;;;;;;;55.90;11.23;;;0.80;1.00;;;;;;5098963;28;20201;-56
2023/03/11 20:18:33;;;;;;;105.10;19.20;;;;;;;;;;5098249;28;20247;-55
2023/03/11 20:21:03;;;;;;;83.70;15.80;;;;;;;;;;5094486;28;20216;-55
2023/03/11 20:23:29;;;;;;;108.27;19.80;;;;;;;;;;5089941;28;20214;-55
2023/03/11 20:25:55;;;;;;;116.13;21.07;;;;;;;;;;5087836;28;20220;-55
2023/03/11 20:28:21;;;;;;;91.27;16.60;;;;;;;;;;5092017;28;20178;-55
2023/03/11 20:30:47;;;;;;;65.10;11.87;;;;;;;;;;5098987;27;20229;-55
2023/03/11 20:33:12;;;;;;;104.33;18.40;;;;;;;;;;5094581;28;20248;-55
2023/03/11 20:35:40;;;;;;;82.57;15.07;;;;;;;;;;5095561;28;20214;-55
2023/03/11 20:38:08;;;;;;;81.70;14.67;;;;;;;;;;5094234;28;20743;-55
2023/03/11 20:40:34;;;;;;;61.60;11.83;;;;;;;;;;5096610;28;20182;-55
2023/03/11 20:43:00;;;;;;;50.43;9.90;;;;;;;;;;5092167;28;20290;-55
2023/03/11 20:45:26;;;;;;;87.90;15.93;;;;;;;;;;5095328;28;20213;-55
2023/03/11 20:47:52;;;;;;;104.20;19.17;;;;;;;;;;5098603;28;20217;-54
2023/03/11 20:50:18;;;;;;;86.03;15.47;;;;;;;;;;5097963;28;20205;-54
2023/03/11 20:52:44;;;;;;;72.03;13.67;;;;;;;;;;5096669;27;20614;-55
2023/03/11 20:55:11;;;;;;;109.13;19.37;;;;;;;;;;5098966;28;20448;-55
2023/03/11 20:57:37;;;;;;;142.30;25.13;;;;;;;;;;5090966;28;20399;-55
2023/03/11 21:00:07;;;;;;;75.63;14.07;;;;;;;;;;5095208;28;20497;-55
2023/03/11 21:02:33;;;;;;;101.90;18.17;;;;;;;;;;5094306;28;20729;-55
2023/03/11 21:04:59;;;;;;;91.03;16.47;;;;;;;;;;5086977;28;20584;-55
2023/03/11 21:07:25;;;;;;;92.60;16.97;;;;;;;;;;5087294;28;20206;-55
2023/03/11 21:09:53;;;;;;;79.70;14.57;;;;;;;;;;5090944;28;20218;-55
2023/03/11 21:12:19;;;;;;;199.90;34.23;;;;;;;;;;5080552;28;20251;-55
2023/03/11 21:14:45;;;;;;;108.60;19.47;;;;;;;;;;5098050;28;20614;-54
2023/03/11 21:17:11;;;;;;;140.70;24.20;;;;;;;;;;5094978;28;20225;-56
2023/03/11 21:19:37;;;;;;;103.23;18.77;;;;;;;;;;5081388;28;20186;-56
2023/03/11 21:22:03;;;;;;;62.47;11.67;;;;;;;;;;5087669;28;20220;-56
2023/03/11 21:24:29;;;;;;;95.50;17.17;;;;;;;;;;5091079;28;20206;-56
2023/03/11 21:26:55;;;;;;;108.20;19.33;;;;;;;;;;5093719;28;20237;-56
2023/03/11 21:29:21;;;;;;;730.53;141.60;;;;;;;;;;5070771;27;20281;-55